< Typhoon 197607 1976 Season Typhoon 197609 >
Typhoon 197608 (SALLY)
General InformationTrack Information on Google Maps || Disaster Info.ResourceGoogle EarthGE AnimationAtom FeedGeoJSON
Detalied Best Track (Time Zone = UTC)
Year Month Day Hour Lat. Long. Pressure (hPa) Wind (kt) Class Image Chart
1976 6 23 12 9.0 148.0 1004 0 2 -- Chart
1976 6 23 18 9.1 146.5 1004 0 2 -- Chart
1976 6 24 00 9.4 145.4 1004 0 2 -- Chart
1976 6 24 06 9.7 144.6 1004 0 2 -- Chart
1976 6 24 12 10.2 143.8 1002 0 2 -- Chart
1976 6 24 18 10.6 143.2 1000 0 9 -- Chart
1976 6 25 00 11.5 142.3 1000 0 9 -- Chart
1976 6 25 06 12.7 140.8 1000 0 9 -- Chart
1976 6 25 12 13.4 139.9 1000 0 9 -- Chart
1976 6 25 18 14.0 138.9 1000 0 9 -- Chart
1976 6 26 00 14.7 137.5 1000 0 9 -- Chart
1976 6 26 06 15.6 136.4 990 0 9 -- Chart
1976 6 26 12 16.3 135.5 985 0 9 -- Chart
1976 6 26 18 16.9 134.6 975 0 9 -- Chart
1976 6 27 00 17.5 134.4 965 0 9 -- Chart
1976 6 27 06 18.0 133.9 960 0 9 -- Chart
1976 6 27 12 18.5 133.2 950 0 9 -- Chart
1976 6 27 18 18.9 132.6 940 0 9 -- Chart
1976 6 28 00 19.3 132.5 925 0 9 -- Chart
1976 6 28 06 19.6 132.5 925 0 9 -- Chart
1976 6 28 12 20.0 132.8 935 0 9 -- Chart
1976 6 28 18 20.7 133.0 940 0 9 -- Chart
1976 6 29 00 21.3 133.4 940 0 9 -- Chart
1976 6 29 06 21.9 134.2 940 0 9 -- Chart
1976 6 29 12 22.6 135.2 945 0 9 -- Chart
1976 6 29 18 23.5 136.2 950 0 9 -- Chart
1976 6 30 00 24.3 137.2 945 0 9 -- Chart
1976 6 30 06 25.1 138.3 950 0 9 -- Chart
1976 6 30 12 25.8 139.7 955 0 9 -- Chart
1976 6 30 18 26.6 141.2 955 0 9 -- Chart
1976 7 1 00 27.2 143.2 960 0 9 -- Chart
1976 7 1 06 27.8 145.5 960 0 9 -- Chart
1976 7 1 12 28.2 147.0 960 0 9 -- Chart
1976 7 1 18 29.0 150.0 960 0 9 -- Chart
1976 7 2 00 29.5 151.8 965 0 9 -- Chart
1976 7 2 06 30.0 153.9 970 0 9 -- Chart
1976 7 2 12 32.0 158.0 970 0 9 -- Chart
1976 7 2 18 34.6 160.7 975 0 9 -- Chart
1976 7 3 00 37.8 162.2 980 0 9 -- Chart
1976 7 3 06 41.0 166.0 976 0 6 -- Chart
1976 7 3 12 43.4 168.0 972 0 6 -- Chart
1976 7 3 18 45.4 169.7 968 0 6 -- Chart
1976 7 4 00 47.0 171.0 970 0 6 -- Chart
1976 7 4 06 48.0 170.0 972 0 6 -- Chart
1976 7 4 12 47.7 170.7 972 0 6 -- Chart
1976 7 4 18 47.5 173.0 976 0 6 -- Chart
1976 7 5 00 47.7 175.6 982 0 6 -- Chart
1976 7 5 06 48.2 179.0 984 0 6 -- Chart
Japan Meteorological Agency Best Track Data | Correction Date : 1992-10-21
< Typhoon 197607 1976 Season Typhoon 197609 >

Help